createdAt,value
2017-12-21T00:00:07.913Z,3.00
2017-12-21T00:02:36.364Z,3.00
2017-12-21T00:05:03.998Z,2.90
2017-12-21T00:07:31.621Z,3.00
2017-12-21T00:09:59.287Z,3.00
2017-12-21T00:12:27.142Z,3.00
2017-12-21T00:14:54.841Z,3.00
2017-12-21T00:17:22.478Z,3.00
2017-12-21T00:19:50.127Z,2.90
2017-12-21T00:22:29.614Z,3.00
2017-12-21T00:24:57.254Z,3.00
2017-12-21T00:27:24.916Z,2.90
2017-12-21T00:29:57.141Z,2.90
2017-12-21T00:32:25.842Z,3.00
2017-12-21T00:34:53.557Z,3.00
2017-12-21T00:37:22.936Z,3.00
2017-12-21T00:39:52.661Z,3.10
2017-12-21T00:42:20.308Z,3.10
2017-12-21T00:44:48.116Z,3.10
2017-12-21T00:47:15.756Z,3.10
2017-12-21T00:49:43.389Z,3.10
2017-12-21T00:52:11.055Z,3.10
2017-12-21T00:54:38.685Z,3.10
2017-12-21T00:57:06.386Z,3.20
2017-12-21T00:59:34.019Z,3.20
2017-12-21T01:02:01.649Z,3.30
2017-12-21T01:04:29.307Z,3.30
2017-12-21T01:06:57.253Z,3.30
2017-12-21T01:09:24.942Z,3.30
2017-12-21T01:11:52.600Z,3.40
2017-12-21T01:14:21.002Z,3.30
2017-12-21T01:16:48.664Z,3.30
2017-12-21T01:19:16.314Z,3.30
2017-12-21T01:21:44.784Z,3.40
2017-12-21T01:24:12.414Z,3.30
2017-12-21T01:26:40.058Z,3.40
2017-12-21T01:29:07.794Z,3.50
2017-12-21T01:31:35.450Z,3.50
2017-12-21T01:34:03.116Z,3.50
2017-12-21T01:36:32.190Z,3.60
2017-12-21T01:38:59.880Z,3.50
2017-12-21T01:41:28.354Z,3.50
2017-12-21T01:43:56.290Z,3.50
2017-12-21T01:46:24.747Z,3.50
2017-12-21T01:48:52.373Z,3.50
2017-12-21T01:51:20.019Z,3.60
2017-12-21T01:53:47.769Z,3.60
2017-12-21T01:56:15.525Z,3.60
2017-12-21T01:58:43.194Z,3.60
2017-12-21T02:01:10.837Z,3.60
2017-12-21T02:03:38.470Z,3.60
2017-12-21T02:06:06.223Z,3.60
2017-12-21T02:08:33.878Z,3.60
2017-12-21T02:11:01.530Z,3.60
2017-12-21T02:13:29.180Z,3.60
2017-12-21T02:15:57.746Z,3.70
2017-12-21T02:18:26.220Z,3.70
2017-12-21T02:20:54.642Z,3.70
2017-12-21T02:23:22.293Z,3.60
2017-12-21T02:25:49.968Z,3.70
2017-12-21T02:28:18.432Z,3.70
2017-12-21T02:30:46.112Z,3.60
2017-12-21T02:33:14.598Z,3.70
2017-12-21T02:35:42.272Z,3.70
2017-12-21T02:38:09.907Z,3.70
2017-12-21T02:40:37.912Z,3.70
2017-12-21T02:43:06.347Z,3.70
2017-12-21T02:45:33.979Z,3.60
2017-12-21T02:48:01.640Z,3.70
2017-12-21T02:50:29.283Z,3.70
2017-12-21T02:52:57.085Z,3.70
2017-12-21T02:55:24.765Z,3.70
2017-12-21T02:57:52.410Z,3.70
2017-12-21T03:00:20.072Z,3.70
2017-12-21T03:02:47.782Z,3.70
2017-12-21T03:05:15.400Z,3.70
2017-12-21T03:07:43.061Z,3.80
2017-12-21T03:10:10.697Z,3.70
2017-12-21T03:12:38.419Z,3.70
2017-12-21T03:15:06.098Z,3.70
2017-12-21T03:17:33.836Z,3.70
2017-12-21T03:20:02.297Z,3.70
2017-12-21T03:22:30.714Z,3.70
2017-12-21T03:24:58.386Z,3.70
2017-12-21T03:27:26.068Z,3.80
2017-12-21T03:29:53.835Z,3.70
2017-12-21T03:32:21.499Z,3.80
2017-12-21T03:34:49.129Z,3.80
2017-12-21T03:37:16.901Z,3.80
2017-12-21T03:39:44.537Z,3.80
2017-12-21T03:42:12.178Z,3.70
2017-12-21T03:44:39.861Z,3.70
2017-12-21T03:47:07.669Z,3.70
2017-12-21T03:49:35.332Z,3.70
2017-12-21T03:52:02.962Z,3.80
2017-12-21T03:54:30.582Z,3.70
2017-12-21T03:56:58.556Z,3.70
2017-12-21T03:59:26.227Z,3.70
2017-12-21T04:01:53.914Z,3.70
2017-12-21T04:04:22.352Z,3.80
2017-12-21T04:06:50.007Z,3.80
2017-12-21T04:09:17.724Z,3.70
2017-12-21T04:11:45.369Z,3.70
2017-12-21T04:14:13.044Z,3.70
2017-12-21T04:16:40.685Z,3.80
2017-12-21T04:19:08.319Z,3.80
2017-12-21T04:21:35.984Z,3.80
2017-12-21T04:24:03.705Z,3.80
2017-12-21T04:26:31.358Z,3.70
2017-12-21T04:28:58.992Z,3.80
2017-12-21T04:31:26.731Z,3.80
2017-12-21T04:33:54.391Z,3.80
2017-12-21T04:36:22.025Z,3.90
2017-12-21T04:38:49.693Z,3.90
2017-12-21T04:41:17.343Z,3.90
2017-12-21T04:43:44.981Z,3.90
2017-12-21T04:46:12.656Z,3.90
2017-12-21T04:48:40.286Z,3.90
2017-12-21T04:51:08.119Z,3.90
2017-12-21T04:53:35.784Z,3.80
2017-12-21T04:56:03.496Z,3.90
2017-12-21T04:58:31.934Z,3.80
2017-12-21T05:00:59.570Z,3.80
2017-12-21T05:03:27.245Z,3.90
2017-12-21T05:05:55.637Z,3.80
2017-12-21T05:08:23.264Z,3.80
2017-12-21T05:10:51.674Z,3.90
2017-12-21T05:13:19.351Z,3.80
2017-12-21T05:15:47.182Z,3.90
2017-12-21T05:18:14.813Z,3.90
2017-12-21T05:20:42.448Z,3.90
2017-12-21T05:23:10.107Z,3.90
2017-12-21T05:25:37.829Z,3.90
2017-12-21T05:28:05.504Z,4.00
2017-12-21T05:30:33.125Z,4.00
2017-12-21T05:33:00.750Z,4.00
2017-12-21T05:35:29.819Z,4.00
2017-12-21T05:37:57.731Z,4.00
2017-12-21T05:40:25.397Z,4.00
2017-12-21T05:42:53.018Z,4.00
2017-12-21T05:45:22.627Z,4.00
2017-12-21T05:47:54.068Z,4.00
2017-12-21T05:50:21.678Z,4.10
2017-12-21T05:52:49.341Z,4.10
2017-12-21T05:55:17.114Z,4.10
2017-12-21T05:57:44.881Z,4.10
2017-12-21T06:00:16.275Z,4.10
2017-12-21T06:02:43.979Z,4.10
2017-12-21T06:05:11.646Z,4.10
2017-12-21T06:07:39.275Z,4.10
2017-12-21T06:10:07.024Z,4.20
2017-12-21T06:12:34.674Z,4.20
2017-12-21T06:15:02.316Z,4.20
2017-12-21T06:17:30.742Z,4.20
2017-12-21T06:19:58.373Z,4.10
2017-12-21T06:22:25.991Z,4.20
2017-12-21T06:24:53.777Z,4.20
2017-12-21T06:27:21.400Z,4.20
2017-12-21T06:29:49.410Z,4.20
2017-12-21T06:32:17.172Z,4.20
2017-12-21T06:34:45.560Z,4.30
2017-12-21T06:37:13.209Z,4.20
2017-12-21T06:39:40.821Z,4.40
2017-12-21T06:42:09.251Z,4.30
2017-12-21T06:44:37.015Z,4.30
2017-12-21T06:47:04.637Z,4.40
2017-12-21T06:49:32.313Z,4.40
2017-12-21T06:52:00.001Z,4.40
2017-12-21T06:54:27.800Z,4.40
2017-12-21T06:56:55.427Z,4.40
2017-12-21T06:59:23.042Z,4.40
2017-12-21T07:01:50.705Z,4.40
2017-12-21T07:04:18.314Z,4.50
2017-12-21T07:06:46.758Z,4.50
2017-12-21T07:09:14.378Z,4.40
2017-12-21T07:11:41.991Z,4.50
2017-12-21T07:14:09.698Z,4.50
2017-12-21T07:16:37.346Z,4.50
2017-12-21T07:19:04.996Z,4.60
2017-12-21T07:21:32.636Z,4.60
2017-12-21T07:24:00.238Z,4.60
2017-12-21T07:26:28.170Z,4.60
2017-12-21T07:28:56.698Z,4.60
2017-12-21T07:31:24.346Z,4.50
2017-12-21T07:33:51.962Z,4.60
2017-12-21T07:36:19.570Z,4.60
2017-12-21T07:38:48.085Z,4.70
2017-12-21T07:41:15.714Z,4.60
2017-12-21T07:43:43.395Z,4.70
2017-12-21T07:46:11.045Z,4.80
2017-12-21T07:48:38.676Z,4.80
2017-12-21T07:51:06.339Z,4.80
2017-12-21T07:53:33.966Z,4.80
2017-12-21T07:56:01.626Z,4.80
2017-12-21T07:58:29.237Z,4.80
2017-12-21T08:00:57.034Z,4.80
2017-12-21T08:03:24.697Z,4.80
2017-12-21T08:05:53.081Z,4.80
2017-12-21T08:08:20.738Z,4.80
2017-12-21T08:10:48.369Z,4.80
2017-12-21T08:13:16.910Z,4.80
2017-12-21T08:15:44.563Z,4.80
2017-12-21T08:18:12.173Z,4.80
2017-12-21T08:20:39.834Z,4.80
2017-12-21T08:23:07.594Z,4.90
2017-12-21T08:25:35.215Z,4.90
2017-12-21T08:28:02.869Z,5.00
2017-12-21T08:30:30.485Z,4.90
2017-12-21T08:32:58.162Z,4.90
2017-12-21T08:35:25.993Z,4.90
2017-12-21T08:37:54.537Z,4.90
2017-12-21T08:40:22.182Z,4.90
2017-12-21T08:42:49.800Z,4.90
2017-12-21T08:45:17.456Z,5.00
2017-12-21T08:47:45.840Z,5.00
2017-12-21T08:50:13.462Z,5.00
2017-12-21T08:52:41.982Z,5.00
2017-12-21T08:55:09.601Z,5.00
2017-12-21T08:57:37.241Z,5.00
2017-12-21T09:00:04.858Z,5.00
2017-12-21T09:02:32.497Z,5.10
2017-12-21T09:05:00.151Z,5.10
2017-12-21T09:07:27.889Z,5.10
2017-12-21T09:09:55.559Z,5.10
2017-12-21T09:12:23.264Z,5.10
2017-12-21T09:14:50.869Z,5.10
2017-12-21T09:17:18.538Z,5.20
2017-12-21T09:19:46.251Z,5.20
2017-12-21T09:22:13.911Z,5.20
2017-12-21T09:24:41.518Z,5.20
2017-12-21T09:27:09.154Z,5.30
2017-12-21T09:29:37.042Z,5.30
2017-12-21T09:32:05.425Z,5.30
2017-12-21T09:34:33.086Z,5.20
2017-12-21T09:37:00.723Z,5.30
2017-12-21T09:39:28.355Z,5.30
2017-12-21T09:41:56.052Z,5.30
2017-12-21T09:44:24.580Z,5.30
2017-12-21T09:46:52.234Z,5.20
2017-12-21T09:49:19.851Z,5.30
2017-12-21T09:51:47.597Z,5.30
2017-12-21T09:54:15.258Z,5.40
2017-12-21T09:56:42.894Z,5.40
2017-12-21T09:59:11.298Z,5.40
2017-12-21T10:01:38.926Z,5.30
2017-12-21T10:04:06.691Z,5.40
2017-12-21T10:06:34.340Z,5.40
2017-12-21T10:09:01.967Z,5.40
2017-12-21T10:11:29.890Z,5.50
2017-12-21T10:13:57.718Z,5.50
2017-12-21T10:16:25.351Z,5.50
2017-12-21T10:18:53.049Z,5.50
2017-12-21T10:21:20.677Z,5.50
2017-12-21T10:23:48.323Z,5.50
2017-12-21T10:26:15.951Z,5.50
2017-12-21T10:28:43.862Z,5.60
2017-12-21T10:31:11.525Z,5.60
2017-12-21T10:33:39.147Z,5.60
2017-12-21T10:36:07.042Z,5.70
2017-12-21T10:38:34.666Z,5.70
2017-12-21T10:41:02.275Z,5.70
2017-12-21T10:43:30.740Z,5.70
2017-12-21T10:45:58.389Z,5.60
2017-12-21T10:48:26.245Z,5.70
2017-12-21T10:50:54.615Z,5.80
2017-12-21T10:53:22.232Z,5.70
2017-12-21T10:55:49.882Z,5.80
2017-12-21T10:58:17.605Z,5.80
2017-12-21T11:00:45.270Z,5.80
2017-12-21T11:03:12.900Z,5.90
2017-12-21T11:05:40.523Z,5.90
2017-12-21T11:08:08.191Z,5.80
2017-12-21T11:10:35.813Z,5.90
2017-12-21T11:13:03.516Z,5.90
2017-12-21T11:15:31.134Z,5.90
2017-12-21T11:17:58.746Z,5.90
2017-12-21T11:20:26.426Z,5.90
2017-12-21T11:22:54.042Z,5.90
2017-12-21T11:25:21.723Z,5.90
2017-12-21T11:27:49.353Z,5.80
2017-12-21T11:30:17.074Z,5.90
2017-12-21T11:32:44.759Z,5.90
2017-12-21T11:35:12.370Z,5.90
2017-12-21T11:37:40.013Z,5.90
2017-12-21T11:40:07.743Z,6.00
2017-12-21T11:42:36.136Z,5.90
2017-12-21T11:45:04.628Z,6.00
2017-12-21T11:47:32.260Z,5.90
2017-12-21T11:49:59.928Z,6.00
2017-12-21T11:52:27.746Z,6.00
2017-12-21T11:54:55.377Z,6.00
2017-12-21T11:57:23.121Z,6.00
2017-12-21T11:59:50.740Z,6.00
2017-12-21T12:02:18.378Z,6.00
2017-12-21T12:04:46.041Z,6.00
2017-12-21T12:07:13.792Z,6.00
2017-12-21T12:09:42.222Z,6.00
2017-12-21T12:12:09.840Z,6.00
2017-12-21T12:14:37.595Z,6.10
2017-12-21T12:17:05.206Z,6.10
2017-12-21T12:19:33.591Z,6.10
2017-12-21T12:22:01.245Z,6.00
2017-12-21T12:24:28.870Z,6.10
2017-12-21T12:26:56.657Z,6.20
2017-12-21T12:29:24.281Z,6.10
2017-12-21T12:31:51.912Z,6.20
2017-12-21T12:34:20.338Z,6.20
2017-12-21T12:36:48.049Z,6.10
2017-12-21T12:39:15.719Z,6.20
2017-12-21T12:41:43.330Z,6.30
2017-12-21T12:44:10.962Z,6.30
2017-12-21T12:46:39.381Z,6.30
2017-12-21T12:49:07.137Z,6.30
2017-12-21T12:51:34.785Z,6.30
2017-12-21T12:54:02.401Z,6.30
2017-12-21T12:56:30.029Z,6.30
2017-12-21T12:58:57.803Z,6.30
2017-12-21T13:01:25.435Z,6.30
2017-12-21T13:03:53.108Z,6.30
2017-12-21T13:06:20.744Z,6.30
2017-12-21T13:08:48.406Z,6.30
2017-12-21T13:11:16.220Z,6.30
2017-12-21T13:13:43.841Z,6.20
2017-12-21T13:16:12.288Z,6.30
2017-12-21T13:18:39.975Z,6.20
2017-12-21T13:21:07.639Z,6.30
2017-12-21T13:23:35.290Z,6.40
2017-12-21T13:26:02.917Z,6.40
2017-12-21T13:28:30.589Z,6.30
2017-12-21T13:30:58.294Z,6.30
2017-12-21T13:33:25.937Z,6.40
2017-12-21T13:35:54.523Z,6.40
2017-12-21T13:38:22.158Z,6.40
2017-12-21T13:40:49.846Z,6.40
2017-12-21T13:43:17.717Z,6.30
2017-12-21T13:45:45.345Z,6.40
2017-12-21T13:48:13.014Z,6.40
2017-12-21T13:50:40.647Z,6.40
2017-12-21T13:53:08.366Z,6.40
2017-12-21T13:55:36.093Z,6.40
2017-12-21T13:58:04.571Z,6.40
2017-12-21T14:00:32.245Z,6.30
2017-12-21T14:02:59.906Z,6.40
2017-12-21T14:05:27.735Z,6.40
2017-12-21T14:07:55.370Z,6.40
2017-12-21T14:10:23.011Z,6.40
2017-12-21T14:12:50.671Z,6.40
2017-12-21T14:15:18.535Z,6.40
2017-12-21T14:17:46.250Z,6.40
2017-12-21T14:20:14.730Z,6.40
2017-12-21T14:22:42.366Z,6.30
2017-12-21T14:25:10.014Z,6.40
2017-12-21T14:27:37.766Z,6.40
2017-12-21T14:30:05.412Z,6.40
2017-12-21T14:32:33.057Z,6.40
2017-12-21T14:35:00.690Z,6.40
2017-12-21T14:37:28.388Z,6.40
2017-12-21T14:39:56.367Z,6.40
2017-12-21T14:42:24.796Z,6.40
2017-12-21T14:44:52.430Z,6.30
2017-12-21T14:47:20.086Z,6.40
2017-12-21T14:49:47.830Z,6.40
2017-12-21T14:52:15.488Z,6.40
2017-12-21T14:54:43.171Z,6.40
2017-12-21T14:57:10.797Z,6.40
2017-12-21T14:59:38.423Z,6.40
2017-12-21T15:02:06.198Z,6.40
2017-12-21T15:04:33.845Z,6.40
2017-12-21T15:07:01.510Z,6.40
2017-12-21T15:09:29.143Z,6.40
2017-12-21T15:11:57.039Z,6.40
2017-12-21T15:14:24.690Z,6.40
2017-12-21T15:16:52.316Z,6.40
2017-12-21T15:19:20.735Z,6.40
2017-12-21T15:21:48.350Z,6.40
2017-12-21T15:24:17.034Z,6.40
2017-12-21T15:26:44.697Z,6.40
2017-12-21T15:29:13.837Z,6.40
2017-12-21T15:31:41.518Z,6.40
2017-12-21T15:34:09.300Z,6.40
2017-12-21T15:36:37.158Z,6.40
2017-12-21T15:39:05.583Z,6.40
2017-12-21T15:41:33.239Z,6.30
2017-12-21T15:44:00.890Z,6.40
2017-12-21T15:46:28.537Z,6.40
2017-12-21T15:48:56.195Z,6.40
2017-12-21T15:51:24.717Z,6.40
2017-12-21T15:53:52.375Z,6.40
2017-12-21T15:56:20.067Z,6.50
2017-12-21T15:58:48.438Z,6.40
2017-12-21T16:01:16.208Z,6.40
2017-12-21T16:03:43.877Z,6.40
2017-12-21T16:06:11.521Z,6.40
2017-12-21T16:08:39.244Z,6.40
2017-12-21T16:11:07.813Z,6.40
2017-12-21T16:13:36.329Z,6.40
2017-12-21T16:16:04.142Z,6.30
2017-12-21T16:18:31.879Z,6.40
2017-12-21T16:20:59.538Z,6.40
2017-12-21T16:23:27.344Z,6.40
2017-12-21T16:25:54.971Z,6.30
2017-12-21T16:28:22.622Z,6.30
2017-12-21T16:30:50.243Z,6.40
2017-12-21T16:33:19.712Z,6.40
2017-12-21T16:35:47.366Z,6.40
2017-12-21T16:38:15.079Z,6.40
2017-12-21T16:40:42.739Z,6.40
2017-12-21T16:43:11.186Z,6.40
2017-12-21T16:45:38.938Z,6.30
2017-12-21T16:48:06.845Z,6.40
2017-12-21T16:50:34.581Z,6.40
2017-12-21T16:53:02.284Z,6.40
2017-12-21T16:55:29.954Z,6.40
2017-12-21T16:57:58.383Z,6.40
2017-12-21T17:00:26.226Z,6.40
2017-12-21T17:02:53.864Z,6.40
2017-12-21T17:05:21.519Z,6.50
2017-12-21T17:07:49.153Z,6.50
2017-12-21T17:10:17.598Z,6.40
2017-12-21T17:12:45.278Z,6.40
2017-12-21T17:15:12.902Z,6.30
2017-12-21T17:17:40.549Z,6.30
2017-12-21T17:20:08.684Z,6.30
2017-12-21T17:22:37.326Z,6.30
2017-12-21T17:25:05.368Z,6.30
2017-12-21T17:27:33.439Z,6.30
2017-12-21T17:30:01.131Z,6.30
2017-12-21T17:32:28.821Z,6.30
2017-12-21T17:34:56.686Z,6.30
2017-12-21T17:37:24.319Z,6.40
2017-12-21T17:39:52.550Z,6.40
2017-12-21T17:42:21.390Z,6.40
2017-12-21T17:44:49.062Z,6.40
2017-12-21T17:47:16.988Z,6.30
2017-12-21T17:49:45.778Z,6.30
2017-12-21T17:52:13.464Z,6.20
2017-12-21T17:54:41.135Z,6.30
2017-12-21T17:57:09.347Z,6.30
2017-12-21T17:59:37.165Z,6.20
2017-12-21T18:02:08.977Z,6.20
2017-12-21T18:04:37.238Z,6.20
2017-12-21T18:07:04.867Z,6.20
2017-12-21T18:09:33.149Z,6.10
2017-12-21T18:12:04.037Z,6.10
2017-12-21T18:14:31.686Z,6.10
2017-12-21T18:16:59.384Z,6.10
2017-12-21T18:19:27.156Z,6.00
2017-12-21T18:21:55.586Z,6.00
2017-12-21T18:24:23.257Z,6.00
2017-12-21T18:26:51.643Z,6.00
2017-12-21T18:29:19.306Z,6.00
2017-12-21T18:31:47.018Z,6.00
2017-12-21T18:34:15.432Z,6.00
2017-12-21T18:36:43.095Z,5.90
2017-12-21T18:39:10.867Z,6.00
2017-12-21T18:41:38.522Z,6.00
2017-12-21T18:44:07.109Z,6.00
2017-12-21T18:46:34.756Z,6.00
2017-12-21T18:49:02.455Z,6.00
2017-12-21T18:51:30.099Z,6.10
2017-12-21T18:53:57.807Z,6.00
2017-12-21T18:56:25.433Z,6.00
2017-12-21T18:58:53.116Z,5.90
2017-12-21T19:01:20.819Z,5.90
2017-12-21T19:03:48.451Z,5.90
2017-12-21T19:06:16.251Z,5.80
2017-12-21T19:08:43.898Z,5.80
2017-12-21T19:11:11.668Z,5.80
2017-12-21T19:13:39.340Z,5.80
2017-12-21T19:16:07.163Z,5.80
2017-12-21T19:18:34.827Z,5.80
2017-12-21T19:21:03.070Z,5.80
2017-12-21T19:23:31.152Z,5.80
2017-12-21T19:25:58.881Z,5.80
2017-12-21T19:28:26.731Z,5.80
2017-12-21T19:30:54.398Z,5.80
2017-12-21T19:33:22.193Z,5.70
2017-12-21T19:35:49.997Z,5.70
2017-12-21T19:38:17.777Z,5.80
2017-12-21T19:40:45.402Z,5.80
2017-12-21T19:43:13.056Z,5.80
2017-12-21T19:45:40.768Z,5.80
2017-12-21T19:48:08.490Z,5.70
2017-12-21T19:50:45.828Z,5.70
2017-12-21T19:53:23.297Z,5.70
2017-12-21T19:56:01.331Z,5.70
2017-12-21T19:58:36.946Z,5.80
2017-12-21T20:01:05.294Z,5.80
2017-12-21T20:03:33.754Z,5.80
2017-12-21T20:06:01.411Z,5.70
2017-12-21T20:08:29.239Z,5.80
2017-12-21T20:10:57.408Z,5.80
2017-12-21T20:13:25.931Z,5.80
2017-12-21T20:15:53.801Z,5.80
2017-12-21T20:18:21.541Z,5.70
2017-12-21T20:20:49.199Z,5.70
2017-12-21T20:23:17.383Z,5.70
2017-12-21T20:25:45.883Z,5.60
2017-12-21T20:28:13.838Z,5.60
2017-12-21T20:30:41.468Z,5.70
2017-12-21T20:33:09.945Z,5.60
2017-12-21T20:35:37.929Z,5.60
2017-12-21T20:38:05.855Z,5.60
2017-12-21T20:40:33.546Z,5.60
2017-12-21T20:43:01.270Z,5.60
2017-12-21T20:45:28.937Z,5.60
2017-12-21T20:47:56.722Z,5.60
2017-12-21T20:50:24.573Z,5.60
2017-12-21T20:52:52.962Z,5.70
2017-12-21T20:55:20.711Z,5.60
2017-12-21T20:57:50.223Z,5.70
2017-12-21T21:00:18.117Z,5.70
2017-12-21T21:02:48.160Z,5.70
2017-12-21T21:05:16.379Z,5.60
2017-12-21T21:07:48.445Z,5.70
2017-12-21T21:10:18.525Z,5.70
2017-12-21T21:12:47.705Z,5.60
2017-12-21T21:15:16.938Z,5.70
2017-12-21T21:17:45.400Z,5.60
2017-12-21T21:20:14.249Z,5.60
2017-12-21T21:22:43.003Z,5.50
2017-12-21T21:25:11.826Z,5.50
2017-12-21T21:27:39.459Z,5.50
2017-12-21T21:30:09.291Z,5.50
2017-12-21T21:32:39.111Z,5.50
2017-12-21T21:35:07.134Z,5.50
2017-12-21T21:37:34.799Z,5.50
2017-12-21T21:40:02.425Z,5.50
2017-12-21T21:42:30.075Z,5.40
2017-12-21T21:44:58.788Z,5.40
2017-12-21T21:47:27.016Z,5.40
2017-12-21T21:49:55.558Z,5.40
2017-12-21T21:52:23.308Z,5.40
2017-12-21T21:54:50.929Z,5.40
2017-12-21T21:57:19.466Z,5.50
2017-12-21T21:59:47.880Z,5.40
2017-12-21T22:02:15.769Z,5.40
2017-12-21T22:04:43.808Z,5.40
2017-12-21T22:07:11.566Z,5.40
2017-12-21T22:09:42.142Z,5.40
2017-12-21T22:12:10.557Z,5.40
2017-12-21T22:14:38.547Z,5.30
2017-12-21T22:17:07.838Z,5.30
2017-12-21T22:19:35.474Z,5.30
2017-12-21T22:22:03.132Z,5.40
2017-12-21T22:24:30.765Z,5.40
2017-12-21T22:26:58.433Z,5.30
2017-12-21T22:29:26.710Z,5.30
2017-12-21T22:31:54.350Z,5.30
2017-12-21T22:34:31.044Z,5.40
2017-12-21T22:37:03.388Z,5.30
2017-12-21T22:39:31.205Z,5.30
2017-12-21T22:41:58.854Z,5.30
2017-12-21T22:44:26.746Z,5.30
2017-12-21T22:46:54.463Z,5.30
2017-12-21T22:49:22.926Z,5.30
2017-12-21T22:51:50.632Z,5.30
2017-12-21T22:54:18.302Z,5.30
2017-12-21T22:56:46.083Z,5.30
2017-12-21T22:59:13.861Z,5.30
2017-12-21T23:01:41.548Z,5.30
2017-12-21T23:04:09.245Z,5.30
2017-12-21T23:06:37.187Z,5.30
2017-12-21T23:09:09.058Z,5.30
2017-12-21T23:11:36.801Z,5.40
2017-12-21T23:14:04.432Z,5.30
2017-12-21T23:16:32.146Z,5.20
2017-12-21T23:18:59.858Z,5.20
2017-12-21T23:21:27.689Z,5.20
2017-12-21T23:23:55.429Z,5.10
2017-12-21T23:26:23.062Z,5.20
2017-12-21T23:28:50.733Z,5.20
2017-12-21T23:31:18.401Z,5.10
2017-12-21T23:33:46.115Z,5.10
2017-12-21T23:36:14.589Z,5.10
2017-12-21T23:38:42.258Z,5.00
2017-12-21T23:41:09.949Z,5.10
2017-12-21T23:43:37.640Z,5.10
2017-12-21T23:46:06.812Z,5.10
2017-12-21T23:48:35.288Z,5.10
2017-12-21T23:51:03.131Z,5.10
2017-12-21T23:53:30.791Z,5.10
2017-12-21T23:55:58.425Z,5.20
2017-12-21T23:58:26.211Z,5.20
